You are listening to:
KMDW Tower #1 - Chicago, Illinois, United States

KMDW 271753Z 30014G21KT 10SM SCT035 BKN040 20/11 A2972 RMK AO2 SLP061 60000 T02000111 10206 20150 51026 $

If stream doesn't start automatically press the play button
If stream stops then reload player then press play